map of KIKW home
Great Circle Mapper logo
KIKW - Airport
Location
City:  Midland, Michigan, United States
Name:Jack Barstow Airport
ICAO:KIKW
FAA:IKW

Details
Type:Airport (Airfield)
Use:Public/Civil
Latitude:4339'47"N (43.662917)
Longitude:8415'41"W (-84.261305)
Datum:WGS 1984
Elevation:635 ft (194 m)
Runways:2
Longest:3801 × 75 ft (1159 × 23 m), paved

Time
Time Zone:UTC-5 (DST-4)
Local Time:

Weather
METAR:KIKW 201052Z AUTO 19005KT 10SM SCT070 OVC080 09/08 A2979 RMK AO2 T00900075

Related Locations
Nearby:
Farthest:MGV: 11201 mi / 18027 km
Margaret River, WA, AU

Find:

   beyond  
but within

Other Information
Maps:
NOTAMs:
Links:
Sources:

  
flag of United States
flag of Michigan
  

Sectional Chart

Flight Planning
at skyvector.com

Satellite Image

Google Maps Satellite View

 

Copyright © 2004-2014 Karl L. Swartz. All rights reserved.
The Great Circle Mapper name and logo are trademarks of the Great Circle Mapper.
All other trademarks mentioned herein belong to their respective owners.
Please see credits for attibutions and further copyright information.

  Follow gcmap on Facebook Follow gcmap on Twitter

hCard Microformat

Geo Microformat